Time;durP1;ratioP1;P1;durP2;ratioP2;P2;SDS_P1;SDS_P2;PMS_P1;PMS_P2;Temp;Humidity;BMP_temperature;BMP_pressure;BME280_temperature;BME280_humidity;BME280_pressure;Samples;Min_cycle;Max_cycle;Signal;HPM_P1;HPM_P2
2022/05/15 00:02:22;;;;;;;2.15;1.30;;;;;;;25.11;44.50;99260.53;5112564;28;20058;-58
2022/05/15 00:04:50;;;;;;;1.75;1.27;;;;;;;25.09;44.51;99260.16;5112298;28;20056;-58
2022/05/15 00:07:16;;;;;;;2.13;1.30;;;;;;;25.07;44.70;99256.16;5112341;28;20055;-58
2022/05/15 00:09:41;;;;;;;2.25;1.50;;;;;;;25.05;44.72;99258.56;5110945;28;20044;-58
2022/05/15 00:12:07;;;;;;;2.10;1.58;;;;;;;25.01;45.03;99261.38;5112442;28;20482;-58
2022/05/15 00:14:33;;;;;;;1.65;1.10;;;;;;;24.98;44.77;99262.97;5112231;28;20044;-58
2022/05/15 00:16:59;;;;;;;2.00;1.42;;;;;;;24.97;44.84;99264.19;5112190;28;20088;-58
2022/05/15 00:19:26;;;;;;;2.10;1.50;;;;;;;24.96;44.94;99264.59;5112295;28;20069;-58
2022/05/15 00:21:52;;;;;;;2.35;1.63;;;;;;;24.94;45.08;99269.81;5112182;28;20135;-58
2022/05/15 00:24:18;;;;;;;1.92;1.40;;;;;;;24.92;45.08;99258.19;5112038;28;20040;-58
2022/05/15 00:26:43;;;;;;;2.00;1.40;;;;;;;24.90;45.00;99260.63;5111903;28;20047;-58
2022/05/15 00:29:09;;;;;;;2.20;1.17;;;;;;;24.88;45.10;99269.41;5111828;28;20590;-58
2022/05/15 00:31:34;;;;;;;2.00;1.40;;;;;;;24.85;45.23;99263.81;5111854;28;20415;-58
2022/05/15 00:34:00;;;;;;;2.20;1.50;;;;;;;24.84;45.22;99268.63;5112021;28;20028;-64
2022/05/15 00:36:25;;;;;;;2.00;1.40;;;;;;;24.84;45.22;99267.84;5111975;28;20043;-64
2022/05/15 00:38:51;;;;;;;2.30;1.60;;;;;;;24.83;45.05;99261.44;5111911;28;20043;-64
2022/05/15 00:41:17;;;;;;;2.22;1.38;;;;;;;24.83;45.22;99266.25;5111911;28;20412;-64
2022/05/15 00:43:52;;;;;;;2.03;1.40;;;;;;;24.77;45.19;99265.84;5111721;28;20443;-58
2022/05/15 00:46:28;;;;;;;2.17;1.58;;;;;;;24.77;45.49;99270.66;5111789;28;20039;-58
2022/05/15 00:48:55;;;;;;;2.10;1.40;;;;;;;24.76;45.34;99274.66;5111847;28;20043;-58
2022/05/15 00:51:36;;;;;;;2.30;1.40;;;;;;;24.74;45.21;99268.69;5111609;28;20039;-58
2022/05/15 00:54:30;;;;;;;2.20;1.50;;;;;;;24.73;45.39;99273.47;5111758;28;20055;-58
2022/05/15 00:57:00;;;;;;;2.15;1.40;;;;;;;24.73;45.43;99273.47;5111565;28;20071;-58
2022/05/15 00:59:30;;;;;;;1.77;1.25;;;;;;;24.74;45.35;99274.28;5111493;28;20066;-58
2022/05/15 01:01:55;;;;;;;2.03;1.40;;;;;;;24.72;45.33;99283.06;5109582;28;20048;-64
2022/05/15 01:04:21;;;;;;;1.90;1.30;;;;;;;24.66;45.19;99273.50;5111412;28;20062;-64
2022/05/15 01:06:46;;;;;;;1.95;1.40;;;;;;;24.68;45.50;99282.28;5109428;28;20039;-64
2022/05/15 01:09:13;;;;;;;2.10;1.40;;;;;;;24.68;45.46;99287.88;5111467;28;20332;-64
2022/05/15 01:11:42;;;;;;;1.98;1.45;;;;;;;24.68;45.58;99288.66;5111305;28;20067;-64
2022/05/15 01:14:11;;;;;;;2.05;1.35;;;;;;;24.70;45.65;99288.25;5111551;28;20114;-64
2022/05/15 01:16:37;;;;;;;2.55;1.70;;;;;;;24.68;45.31;99285.88;5111316;28;20048;-64
2022/05/15 01:19:03;;;;;;;2.08;1.35;;;;;;;24.67;45.44;99284.28;5111142;28;20403;-58
2022/05/15 01:21:33;;;;;;;3.22;1.40;;;;;;;24.65;45.68;99289.50;5110999;28;20087;-58
2022/05/15 01:24:00;;;;;;;2.70;1.73;;;;;;;24.67;45.41;99284.28;5111319;28;20043;-58
2022/05/15 01:26:26;;;;;;;2.40;1.70;;;;;;;24.60;45.72;99280.72;5111143;28;20047;-64
2022/05/15 01:28:52;;;;;;;2.00;1.38;;;;;;;24.61;45.77;99288.69;5111230;28;20051;-65
2022/05/15 01:31:19;;;;;;;2.10;1.50;;;;;;;24.64;45.59;99296.25;5111056;28;20392;-64
2022/05/15 01:33:47;;;;;;;2.05;1.48;;;;;;;24.63;45.37;99297.47;5111164;28;20040;-64
2022/05/15 01:36:13;;;;;;;2.38;1.50;;;;;;;24.65;45.58;99306.28;5112904;28;20051;-65
2022/05/15 01:38:38;;;;;;;1.88;1.38;;;;;;;24.62;45.79;99298.66;5110824;28;20531;-64
2022/05/15 01:41:06;;;;;;;2.10;1.40;;;;;;;24.63;45.53;99293.88;5110902;28;20051;-65
2022/05/15 01:43:31;;;;;;;2.42;1.50;;;;;;;24.63;45.78;99291.06;5111080;28;20052;-64
2022/05/15 01:45:58;;;;;;;2.47;1.30;;;;;;;24.62;45.63;99295.88;5110901;28;20044;-58
2022/05/15 01:48:24;;;;;;;2.30;1.52;;;;;;;24.62;45.62;99293.06;5110875;28;20052;-58
2022/05/15 01:50:50;;;;;;;1.90;1.40;;;;;;;24.62;45.75;99290.28;5110701;28;20044;-58
2022/05/15 01:53:15;;;;;;;2.10;1.40;;;;;;;24.60;45.73;99287.09;5110770;28;20051;-58
2022/05/15 01:55:41;;;;;;;2.60;1.80;;;;;;;24.60;45.90;99287.09;5110647;28;20036;-58
2022/05/15 01:58:09;;;;;;;2.42;1.63;;;;;;;24.61;45.74;99287.91;5110959;28;20076;-58
2022/05/15 02:00:35;;;;;;;2.28;1.30;;;;;;;24.61;45.65;99287.91;5110533;28;20043;-58
2022/05/15 02:03:00;;;;;;;2.20;1.60;;;;;;;24.60;45.88;99289.09;5110579;28;20044;-58
2022/05/15 02:05:26;;;;;;;2.38;1.55;;;;;;;24.58;45.66;99286.72;5110612;28;20043;-58
2022/05/15 02:07:52;;;;;;;1.70;1.30;;;;;;;24.58;45.68;99297.09;5110501;28;20503;-58
2022/05/15 02:10:18;;;;;;;1.88;1.40;;;;;;;24.57;45.62;99282.28;5110492;28;20048;-58
2022/05/15 02:12:44;;;;;;;2.33;1.63;;;;;;;24.57;45.62;99285.09;5110405;28;20047;-58
2022/05/15 02:15:10;;;;;;;2.00;1.40;;;;;;;24.54;45.93;99283.13;5110462;28;20043;-58
2022/05/15 02:17:36;;;;;;;2.42;1.58;;;;;;;24.57;45.66;99290.69;5110381;28;20132;-64
2022/05/15 02:20:02;;;;;;;1.70;1.30;;;;;;;24.57;45.59;99285.09;5110453;28;20039;-64
2022/05/15 02:22:27;;;;;;;1.90;1.30;;;;;;;24.55;45.80;99281.91;5110094;28;20066;-64
2022/05/15 02:24:52;;;;;;;2.35;1.63;;;;;;;24.54;45.70;99280.31;5110133;28;20582;-64
2022/05/15 02:27:18;;;;;;;2.00;1.48;;;;;;;24.52;45.85;99276.34;5110376;28;20048;-64
2022/05/15 02:29:43;;;;;;;2.55;1.73;;;;;;;24.51;45.86;99277.53;5110287;28;20523;-64
2022/05/15 02:32:10;;;;;;;2.65;1.70;;;;;;;24.51;46.04;99283.94;5109654;28;20051;-64
2022/05/15 02:34:35;;;;;;;2.13;1.40;;;;;;;24.52;45.83;99287.53;5109561;28;20054;-65
2022/05/15 02:37:00;;;;;;;2.15;1.50;;;;;;;24.51;45.99;99283.94;5110083;28;20044;-64
2022/05/15 02:39:26;;;;;;;2.25;1.40;;;;;;;24.47;46.06;99288.72;5110071;28;20121;-64
2022/05/15 02:41:51;;;;;;;2.03;1.48;;;;;;;24.46;45.94;99287.13;5110218;28;20407;-64
2022/05/15 02:44:18;;;;;;;2.25;1.60;;;;;;;24.44;46.17;99283.94;5109755;28;20127;-64
2022/05/15 02:46:43;;;;;;;2.17;1.60;;;;;;;24.41;46.03;99281.94;5122253;28;20043;-64
2022/05/15 02:51:53;;;;;;;1.98;1.40;;;;;;;24.40;46.08;99278.34;5130783;28;20105;-65
2022/05/15 02:54:19;;;;;;;2.72;1.67;;;;;;;24.39;46.19;99278.75;5130378;28;20035;-64
2022/05/15 02:56:45;;;;;;;2.03;1.45;;;;;;;24.38;45.91;99272.38;5130465;28;20126;-64
2022/05/15 02:59:11;;;;;;;2.13;1.40;;;;;;;24.41;45.98;99274.34;5130368;28;20722;-58
2022/05/15 03:01:37;;;;;;;1.65;1.25;;;;;;;24.38;45.98;99275.16;5130436;28;20053;-58
2022/05/15 03:04:03;;;;;;;2.42;1.63;;;;;;;24.33;46.18;99281.16;5130376;28;20055;-64
2022/05/15 03:06:29;;;;;;;1.80;1.25;;;;;;;24.34;46.09;99284.75;5130395;28;20047;-64
2022/05/15 03:08:54;;;;;;;2.00;1.40;;;;;;;24.29;46.23;99282.31;5130388;28;20130;-65
2022/05/15 03:11:20;;;;;;;2.10;1.42;;;;;;;24.28;46.16;99281.53;5129995;28;20482;-64
2022/05/15 03:13:46;;;;;;;2.10;1.50;;;;;;;24.28;46.46;99277.94;5130226;28;20035;-64
2022/05/15 03:16:13;;;;;;;2.30;1.30;;;;;;;24.28;46.26;99275.94;5130175;28;20047;-64
2022/05/15 03:18:41;;;;;;;2.17;1.40;;;;;;;24.27;46.22;99277.16;5129997;28;20447;-64
2022/05/15 03:21:06;;;;;;;1.85;1.40;;;;;;;24.27;46.24;99279.94;5129944;28;20035;-65
2022/05/15 03:23:32;;;;;;;2.20;1.40;;;;;;;24.27;46.19;99279.16;5129993;28;20059;-64
2022/05/15 03:25:57;;;;;;;1.92;1.40;;;;;;;24.27;46.04;99274.34;5130003;28;20078;-64
2022/05/15 03:28:23;;;;;;;1.98;1.30;;;;;;;24.28;46.20;99275.94;5129789;28;20134;-64
2022/05/15 03:30:48;;;;;;;2.13;1.38;;;;;;;24.29;45.94;99271.16;5129945;28;20096;-64
2022/05/15 03:33:15;;;;;;;2.13;1.30;;;;;;;24.25;46.23;99275.97;5130149;28;20126;-64
2022/05/15 03:35:40;;;;;;;2.25;1.63;;;;;;;24.26;46.25;99274.75;5129977;28;20040;-65
2022/05/15 03:38:07;;;;;;;2.13;1.38;;;;;;;24.23;46.25;99276.38;5129848;28;20575;-64
2022/05/15 03:40:33;;;;;;;2.22;1.50;;;;;;;24.21;46.21;99266.78;5129739;28;20508;-64
2022/05/15 03:42:59;;;;;;;1.95;1.33;;;;;;;24.22;46.05;99273.94;5129761;28;20092;-64
2022/05/15 03:45:24;;;;;;;1.75;1.17;;;;;;;24.24;45.95;99260.41;5132608;27;20035;-64
2022/05/15 03:47:52;;;;;;;1.58;1.27;;;;;;;24.23;46.11;99267.97;5133386;28;20039;-65
2022/05/15 03:50:20;;;;;;;2.03;1.30;;;;;;;24.25;46.23;99268.38;5133248;28;20047;-65
2022/05/15 03:52:45;;;;;;;2.17;1.48;;;;;;;24.22;46.02;99266.38;5133356;28;20043;-64
2022/05/15 03:55:12;;;;;;;1.90;1.30;;;;;;;24.21;46.03;99266.78;5133240;28;20050;-64
2022/05/15 03:57:38;;;;;;;2.58;1.50;;;;;;;24.19;46.24;99269.19;5133122;28;20043;-64
2022/05/15 04:00:06;;;;;;;2.22;1.40;;;;;;;24.20;46.35;99271.56;5133037;28;20054;-65
2022/05/15 04:02:31;;;;;;;2.20;1.55;;;;;;;24.17;46.15;99273.19;5133072;28;20035;-64
2022/05/15 04:04:57;;;;;;;2.38;1.50;;;;;;;24.19;46.28;99277.56;5132917;28;20051;-64
2022/05/15 04:07:22;;;;;;;2.10;1.50;;;;;;;24.17;46.20;99275.97;5132860;28;20043;-64
2022/05/15 04:09:49;;;;;;;1.77;1.30;;;;;;;24.14;46.27;99268.38;5132889;28;20043;-65
2022/05/15 04:12:15;;;;;;;2.00;1.50;;;;;;;24.15;46.13;99272.78;5132899;28;20065;-64
2022/05/15 04:14:40;;;;;;;1.88;1.30;;;;;;;24.12;46.12;99267.19;5132685;28;20485;-65
2022/05/15 04:17:07;;;;;;;1.95;1.40;;;;;;;24.13;46.46;99280.75;5132805;28;20043;-65
2022/05/15 04:19:37;;;;;;;2.30;1.52;;;;;;;24.12;46.35;99281.94;5132731;28;20046;-58
2022/05/15 04:22:05;;;;;;;2.25;1.60;;;;;;;24.14;46.46;99284.34;5132686;28;20058;-58
2022/05/15 04:24:31;;;;;;;1.88;1.30;;;;;;;24.11;46.43;99280.38;5132435;28;20047;-58
2022/05/15 04:26:57;;;;;;;2.30;1.58;;;;;;;24.10;46.44;99287.16;5132541;28;20043;-58
2022/05/15 04:29:24;;;;;;;1.80;1.30;;;;;;;24.11;46.21;99288.75;5132578;28;20035;-58
2022/05/15 04:31:55;;;;;;;1.95;1.38;;;;;;;24.10;46.48;99289.94;5132497;28;20050;-58
2022/05/15 04:34:24;;;;;;;2.20;1.50;;;;;;;24.12;46.36;99279.16;5132562;28;20130;-58
2022/05/15 04:36:50;;;;;;;2.15;1.52;;;;;;;24.12;46.42;99281.16;5132439;28;20044;-58
2022/05/15 04:39:16;;;;;;;2.55;1.63;;;;;;;24.11;46.59;99287.94;5132472;28;20095;-58
2022/05/15 04:41:41;;;;;;;2.15;1.50;;;;;;;24.11;46.49;99288.75;5132395;28;20051;-58
2022/05/15 04:44:07;;;;;;;2.45;1.50;;;;;;;24.13;46.46;99296.72;5132412;28;20122;-64
2022/05/15 04:46:33;;;;;;;2.10;1.50;;;;;;;24.11;46.70;99288.75;5132483;28;20039;-58
2022/05/15 04:48:58;;;;;;;1.88;1.42;;;;;;;24.10;46.60;99289.94;5132351;28;20075;-58
2022/05/15 04:51:24;;;;;;;1.90;1.42;;;;;;;24.11;46.75;99287.94;5132131;28;20058;-58
2022/05/15 04:53:49;;;;;;;2.40;1.52;;;;;;;24.12;46.88;99289.53;5132148;28;20156;-64
2022/05/15 04:56:15;;;;;;;2.30;1.60;;;;;;;24.13;46.77;99296.72;5131337;27;20043;-64
2022/05/15 04:58:41;;;;;;;2.10;1.50;;;;;;;24.11;46.95;99297.13;5132120;28;20103;-65
2022/05/15 05:01:06;;;;;;;2.55;1.65;;;;;;;24.12;46.93;99295.94;5132144;28;20049;-65
2022/05/15 05:03:31;;;;;;;2.20;1.60;;;;;;;24.11;47.12;99296.34;5132077;28;20035;-64
2022/05/15 05:05:57;;;;;;;2.30;1.60;;;;;;;24.07;47.14;99287.13;5132190;28;20039;-65
2022/05/15 05:08:22;;;;;;;2.08;1.40;;;;;;;24.12;46.84;99298.72;5132036;28;20138;-64
2022/05/15 05:10:48;;;;;;;2.22;1.70;;;;;;;24.14;46.91;99292.72;5131868;28;20051;-64
2022/05/15 05:13:13;;;;;;;2.42;1.63;;;;;;;24.14;46.94;99290.72;5132003;28;20279;-64
2022/05/15 05:15:39;;;;;;;2.22;1.58;;;;;;;24.14;47.10;99292.72;5131985;28;20537;-64
2022/05/15 05:18:04;;;;;;;2.42;1.60;;;;;;;24.14;47.08;99298.31;5131715;28;20066;-64
2022/05/15 05:20:30;;;;;;;2.10;1.40;;;;;;;24.14;47.05;99298.31;5131677;28;20038;-64
2022/05/15 05:22:55;;;;;;;2.05;1.40;;;;;;;24.13;46.99;99302.31;5131809;28;20043;-64
2022/05/15 05:25:21;;;;;;;2.63;1.50;;;;;;;24.14;47.21;99301.91;5131682;28;20096;-58
2022/05/15 05:27:46;;;;;;;2.33;1.65;;;;;;;24.15;47.21;99295.16;5131900;28;20084;-58
2022/05/15 05:30:22;;;;;;;2.25;1.80;;;;;;;24.13;47.39;99296.72;5131751;28;20047;-58
2022/05/15 05:32:48;;;;;;;2.40;1.60;;;;;;;24.14;47.21;99299.13;5130946;28;20043;-59
2022/05/15 05:35:15;;;;;;;2.60;1.70;;;;;;;24.14;47.41;99301.91;5131884;28;20061;-58
2022/05/15 05:37:40;;;;;;;2.75;1.60;;;;;;;24.15;47.24;99300.72;5131535;28;20047;-58
2022/05/15 05:40:07;;;;;;;2.42;1.70;;;;;;;24.12;47.25;99295.13;5131516;28;20498;-58
2022/05/15 05:42:32;;;;;;;2.20;1.40;;;;;;;24.14;47.42;99304.69;5131473;28;20051;-58
2022/05/15 05:44:58;;;;;;;1.95;1.40;;;;;;;24.14;47.26;99299.13;5131409;28;20054;-58
2022/05/15 05:47:25;;;;;;;2.53;1.65;;;;;;;24.13;47.26;99303.09;5131352;28;20035;-58
2022/05/15 05:49:51;;;;;;;2.75;1.80;;;;;;;24.12;47.16;99295.94;5131360;28;20656;-58
2022/05/15 05:52:16;;;;;;;2.13;1.42;;;;;;;24.15;46.93;99300.72;5131411;28;20046;-58
2022/05/15 05:54:42;;;;;;;2.25;1.65;;;;;;;24.16;47.04;99307.13;5131552;28;20108;-58
2022/05/15 05:57:07;;;;;;;2.03;1.30;;;;;;;24.16;46.99;99302.31;5131416;28;20395;-64
2022/05/15 05:59:33;;;;;;;2.40;1.65;;;;;;;24.15;47.04;99300.72;5131268;28;20047;-64
2022/05/15 06:01:58;;;;;;;2.10;1.50;;;;;;;24.15;47.06;99303.53;5131306;28;20047;-64
2022/05/15 06:04:39;;;;;;;2.58;1.67;;;;;;;24.19;47.13;99299.91;5131329;28;20051;-64
2022/05/15 06:07:05;;;;;;;2.45;1.60;;;;;;;24.17;47.21;99303.91;5131256;27;20039;-64
2022/05/15 06:09:30;;;;;;;2.17;1.48;;;;;;;24.16;47.35;99299.53;5131226;28;20047;-64
2022/05/15 06:11:56;;;;;;;2.40;1.60;;;;;;;24.18;47.22;99307.50;5131101;28;20502;-65
2022/05/15 06:14:21;;;;;;;2.50;1.65;;;;;;;24.18;47.34;99301.91;5131018;28;20051;-65
2022/05/15 06:16:46;;;;;;;2.35;1.58;;;;;;;24.20;47.22;99296.72;5130835;28;20511;-65
2022/05/15 06:19:12;;;;;;;2.40;1.70;;;;;;;24.22;47.25;99307.50;5130869;28;20115;-64
2022/05/15 06:21:37;;;;;;;2.17;1.60;;;;;;;24.21;47.21;99301.09;5130954;28;20035;-64
2022/05/15 06:24:03;;;;;;;2.53;1.75;;;;;;;24.20;47.39;99296.72;5130902;28;20051;-63
2022/05/15 06:26:28;;;;;;;2.78;1.70;;;;;;;24.22;47.19;99299.94;5130778;28;20570;-64
2022/05/15 06:28:53;;;;;;;2.45;1.60;;;;;;;24.22;47.47;99299.94;5130805;28;20043;-64
2022/05/15 06:31:19;;;;;;;2.08;1.60;;;;;;;24.22;47.35;99304.69;5130688;28;20107;-65
2022/05/15 06:33:44;;;;;;;2.40;1.70;;;;;;;24.22;47.45;99294.34;5130728;28;20039;-64
2022/05/15 06:36:10;;;;;;;2.05;1.48;;;;;;;24.22;47.53;99296.31;5130757;28;20047;-65
2022/05/15 06:38:35;;;;;;;2.45;1.65;;;;;;;24.23;47.48;99295.13;5130795;28;20035;-64
2022/05/15 06:41:00;;;;;;;2.88;1.80;;;;;;;24.25;47.57;99292.72;5130579;28;20049;-65
2022/05/15 06:43:26;;;;;;;2.17;1.70;;;;;;;24.25;47.51;99287.13;5130539;28;20114;-64
2022/05/15 06:45:51;;;;;;;2.85;1.90;;;;;;;24.24;47.52;99291.94;5130585;28;20039;-65
2022/05/15 06:48:17;;;;;;;2.40;1.90;;;;;;;24.25;47.61;99298.31;5130620;28;20054;-64
2022/05/15 06:50:43;;;;;;;2.15;1.50;;;;;;;24.25;47.84;99287.13;5130335;28;20137;-65
2022/05/15 06:53:12;;;;;;;2.15;1.52;;;;;;;24.25;47.74;99287.13;5130380;28;20086;-58
2022/05/15 06:57:28;;;;;;;2.58;1.70;;;;;;;24.27;47.62;99290.31;5130304;28;20039;-58
2022/05/15 06:58:23;;;;;;;2.25;1.70;;;;;;;24.27;47.56;99290.31;5130487;28;20479;-58
2022/05/15 07:00:48;;;;;;;2.08;1.58;;;;;;;24.28;47.72;99286.31;5130415;28;20045;-58
2022/05/15 07:03:15;;;;;;;2.40;1.70;;;;;;;24.27;47.75;99284.72;5130308;28;20103;-58
2022/05/15 07:05:40;;;;;;;2.55;1.85;;;;;;;24.27;47.89;99282.72;5130213;28;20046;-58
2022/05/15 07:08:08;;;;;;;2.08;1.52;;;;;;;24.26;47.84;99277.56;5130150;28;20035;-58
2022/05/15 07:10:34;;;;;;;2.97;1.90;;;;;;;24.27;47.70;99281.94;5129965;28;20071;-58
2022/05/15 07:12:59;;;;;;;2.40;1.73;;;;;;;24.29;47.60;99279.53;5130017;28;20128;-58
2022/05/15 07:15:25;;;;;;;2.80;1.90;;;;;;;24.28;48.02;99272.34;5130293;28;20058;-58
2022/05/15 07:17:50;;;;;;;2.50;1.80;;;;;;;24.26;47.96;99267.16;5130152;28;20035;-58
2022/05/15 07:20:15;;;;;;;2.00;1.40;;;;;;;24.28;47.89;99267.56;5132780;27;20053;-58
2022/05/15 07:22:41;;;;;;;2.42;1.75;;;;;;;24.28;47.97;99270.34;5133805;28;20055;-58
2022/05/15 07:25:07;;;;;;;2.20;1.60;;;;;;;24.28;47.65;99264.75;5115376;28;20043;-58
2022/05/15 07:27:32;;;;;;;2.42;1.80;;;;;;;24.27;47.84;99265.97;5133545;28;20539;-58
2022/05/15 07:29:58;;;;;;;2.00;1.55;;;;;;;24.30;47.74;99262.38;5133346;28;20047;-58
2022/05/15 07:32:23;;;;;;;2.30;1.58;;;;;;;24.32;47.74;99264.75;5133563;28;20332;-58
2022/05/15 07:34:49;;;;;;;2.60;1.88;;;;;;;24.31;47.65;99266.75;5133378;28;20128;-63
2022/05/15 07:37:16;;;;;;;2.47;1.88;;;;;;;24.33;47.69;99269.19;5133479;28;20031;-65
2022/05/15 07:39:42;;;;;;;2.67;1.67;;;;;;;24.34;47.55;99256.81;5133359;28;20096;-64
2022/05/15 07:42:07;;;;;;;2.35;1.73;;;;;;;24.34;47.46;99256.81;5133283;28;20051;-65
2022/05/15 07:44:33;;;;;;;2.40;1.80;;;;;;;24.34;47.39;99251.22;5133040;28;20086;-59
2022/05/15 07:46:58;;;;;;;2.53;1.67;;;;;;;24.36;47.18;99248.78;5133489;28;20046;-58
2022/05/15 07:49:24;;;;;;;2.40;1.60;;;;;;;24.33;47.30;99244.03;5133294;28;20054;-58
2022/05/15 07:51:49;;;;;;;2.20;1.50;;;;;;;24.36;47.16;99237.63;5133117;28;20503;-58
2022/05/15 07:54:17;;;;;;;2.20;1.58;;;;;;;24.37;47.23;99240.03;5133354;28;20126;-58
2022/05/15 07:56:43;;;;;;;2.40;1.70;;;;;;;24.34;47.06;99234.44;5133274;28;20043;-58
2022/05/15 07:59:09;;;;;;;2.20;1.60;;;;;;;24.35;47.04;99227.63;5133103;28;20045;-65
2022/05/15 08:01:34;;;;;;;2.58;1.85;;;;;;;24.37;47.03;99228.84;5133048;28;20130;-64
2022/05/15 08:04:00;;;;;;;2.50;1.65;;;;;;;24.39;47.20;99237.63;5133398;28;20039;-65
2022/05/15 08:09:10;;;;;;;2.10;1.50;;;;;;;24.40;46.95;99232.81;5133047;28;20054;-65
2022/05/15 08:11:36;;;;;;;2.10;1.48;;;;;;;24.39;47.09;99229.25;5132861;28;20043;-65
2022/05/15 08:14:04;;;;;;;2.50;1.70;;;;;;;24.38;47.00;99224.06;5132901;28;20043;-64
2022/05/15 08:16:31;;;;;;;2.30;1.50;;;;;;;24.43;46.81;99223.63;5132790;28;20047;-64
2022/05/15 08:24:26;;;;;;;2.50;1.67;;;;;;;24.41;46.86;99212.06;5132862;28;20046;-65
2022/05/15 08:26:52;;;;;;;2.55;2.00;;;;;;;24.46;46.85;99216.44;5132727;28;20050;-65
2022/05/15 08:29:18;;;;;;;2.63;1.75;;;;;;;24.47;46.92;99216.03;5132686;28;20043;-58
2022/05/15 08:31:44;;;;;;;2.20;1.60;;;;;;;24.48;46.72;99212.03;5131336;27;20050;-58
2022/05/15 08:34:09;;;;;;;2.65;1.83;;;;;;;24.49;46.63;99210.81;5132536;28;20035;-58
2022/05/15 08:36:36;;;;;;;2.28;1.63;;;;;;;24.50;46.72;99220.81;5132467;28;20062;-58
2022/05/15 08:39:03;;;;;;;2.47;1.73;;;;;;;24.51;46.87;99210.44;5132478;28;20348;-58
2022/05/15 08:41:31;;;;;;;2.20;1.60;;;;;;;24.52;46.56;99207.22;5132136;28;20047;-58
2022/05/15 08:44:15;;;;;;;2.28;1.55;;;;;;;24.52;46.66;99207.22;5132504;28;20431;-58
2022/05/15 08:46:49;;;;;;;2.08;1.50;;;;;;;24.53;46.62;99213.63;5132353;28;20078;-58
2022/05/15 08:49:25;;;;;;;2.95;1.80;;;;;;;24.53;46.55;99213.63;5132105;28;20047;-58
2022/05/15 08:52:28;;;;;;;2.40;1.70;;;;;;;24.52;46.58;99218.41;5132342;28;20051;-58
2022/05/15 08:55:02;;;;;;;2.70;1.90;;;;;;;24.55;46.50;99212.00;5130985;28;20079;-59
2022/05/15 08:57:52;;;;;;;2.30;1.70;;;;;;;24.57;46.42;99217.97;5132313;28;20058;-58
2022/05/15 09:00:33;;;;;;;2.70;1.80;;;;;;;24.59;46.50;99212.81;5132225;28;20039;-65
2022/05/15 09:03:18;;;;;;;2.67;1.80;;;;;;;24.59;46.09;99206.41;5131850;28;20127;-65
2022/05/15 09:05:57;;;;;;;2.60;1.75;;;;;;;24.60;45.98;99200.41;5132032;28;20079;-64
2022/05/15 09:08:40;;;;;;;3.10;2.00;;;;;;;24.61;46.03;99198.41;5096270;28;20499;-64
2022/05/15 09:11:09;;;;;;;2.33;1.65;;;;;;;24.62;46.10;99203.59;5091006;28;20143;-64
2022/05/15 09:13:39;;;;;;;2.80;1.77;;;;;;;24.63;45.95;99202.38;5091095;28;20048;-65
2022/05/15 09:16:42;;;;;;;2.60;1.90;;;;;;;24.64;46.06;99200.38;5072750;28;20388;-65
2022/05/15 09:19:08;;;;;;;2.17;1.50;;;;;;;24.66;45.86;99196.00;5071032;28;20044;-64
2022/05/15 09:21:34;;;;;;;2.67;1.90;;;;;;;24.68;45.73;99199.16;5090891;28;20090;-65
2022/05/15 09:24:16;;;;;;;2.58;1.50;;;;;;;24.69;45.51;99197.16;5090870;28;20083;-65
2022/05/15 09:26:47;;;;;;;2.67;1.75;;;;;;;24.69;45.76;99195.16;5090739;28;20120;-58
2022/05/15 09:29:34;;;;;;;2.30;1.60;;;;;;;24.68;45.78;99193.56;5090674;28;20492;-65
2022/05/15 09:32:02;;;;;;;2.47;1.83;;;;;;;24.71;45.87;99186.34;5090718;28;20142;-65
2022/05/15 09:34:31;;;;;;;2.40;1.80;;;;;;;24.70;45.99;99190.38;5088573;28;20780;-64
2022/05/15 09:39:44;;;;;;;2.10;1.55;;;;;;;24.73;45.84;99194.38;5091279;28;20058;-64
2022/05/15 09:45:19;;;;;;;2.42;1.65;;;;;;;24.73;46.05;99191.56;5109300;28;20053;-59
2022/05/15 09:48:06;;;;;;;2.53;1.80;;;;;;;24.72;46.29;99182.38;5110924;28;20063;-64
2022/05/15 09:50:46;;;;;;;2.40;1.70;;;;;;;24.75;46.18;99175.97;5109964;28;20059;-64
2022/05/15 09:53:26;;;;;;;2.33;1.67;;;;;;;24.76;46.30;99173.97;5110348;28;20044;-64
2022/05/15 09:56:03;;;;;;;2.47;1.75;;;;;;;24.77;46.26;99173.53;5110809;28;20093;-64
2022/05/15 09:58:45;;;;;;;2.42;1.70;;;;;;;24.76;45.95;99169.16;5110651;28;20044;-65
2022/05/15 10:01:20;;;;;;;2.45;1.70;;;;;;;24.77;46.05;99165.16;5110770;28;20051;-64
2022/05/15 10:03:52;;;;;;;2.20;1.60;;;;;;;24.77;46.50;99167.16;5110763;28;20082;-58
2022/05/15 10:06:20;;;;;;;2.40;1.70;;;;;;;24.71;46.09;99159.19;5110792;28;20047;-58
2022/05/15 10:09:03;;;;;;;2.70;1.90;;;;;;;24.78;46.18;99161.16;5110547;28;20044;-58
2022/05/15 10:11:28;;;;;;;2.58;1.80;;;;;;;24.79;46.17;99165.56;5110610;28;20558;-58
2022/05/15 10:13:56;;;;;;;2.65;1.83;;;;;;;24.81;46.08;99159.56;5110475;28;20139;-58
2022/05/15 10:16:29;;;;;;;2.42;1.63;;;;;;;24.81;46.33;99162.34;5110375;28;20050;-58
2022/05/15 10:19:02;;;;;;;2.47;1.65;;;;;;;24.81;46.31;99156.75;5110356;28;20521;-58
2022/05/15 10:21:35;;;;;;;2.13;1.63;;;;;;;24.83;46.43;99154.34;5110330;28;20043;-58
2022/05/15 10:24:06;;;;;;;2.30;1.67;;;;;;;24.84;46.49;99144.75;5110227;28;20542;-58
2022/05/15 10:27:10;;;;;;;2.78;1.90;;;;;;;24.85;46.42;99146.31;5110293;28;20055;-58
2022/05/15 10:30:00;;;;;;;3.08;1.85;;;;;;;24.86;46.51;99143.16;5108285;28;20538;-58
2022/05/15 10:32:38;;;;;;;2.60;1.80;;;;;;;24.85;46.47;99141.53;5110024;28;20393;-58
2022/05/15 10:35:05;;;;;;;2.30;1.60;;;;;;;24.86;46.48;99140.34;5110020;28;20533;-58
2022/05/15 10:37:46;;;;;;;2.22;1.50;;;;;;;24.85;46.41;99138.72;5109982;28;20082;-58
2022/05/15 10:40:41;;;;;;;2.30;1.67;;;;;;;24.87;46.22;99138.34;5110064;28;20054;-58
2022/05/15 10:43:50;;;;;;;2.10;1.42;;;;;;;24.86;46.44;99123.56;5110132;28;20047;-58
2022/05/15 10:46:49;;;;;;;2.20;1.55;;;;;;;24.88;46.42;99114.75;5109320;28;20058;-58
2022/05/15 10:49:33;;;;;;;2.10;1.50;;;;;;;24.88;46.03;99111.94;5109938;28;20052;-65
2022/05/15 10:52:18;;;;;;;2.30;1.60;;;;;;;24.88;46.19;99112.75;5109966;28;20048;-65
2022/05/15 10:58:16;;;;;;;2.38;1.67;;;;;;;24.89;45.93;99102.34;5113681;28;20050;-58
2022/05/15 11:00:44;;;;;;;;;;;;;;;24.93;46.22;99100.31;5114220;28;20044;-58
2022/05/15 11:03:12;;;;;;;2.13;1.60;;;;;;;24.93;45.83;99095.53;5113646;28;19916;-58
2022/05/15 11:05:40;;;;;;;2.30;1.60;;;;;;;24.90;46.02;99093.53;5113515;28;20126;-65
2022/05/15 11:08:17;;;;;;;2.33;1.58;;;;;;;24.92;46.06;99093.13;5113605;28;20047;-65
2022/05/15 11:10:52;;;;;;;2.13;1.42;;;;;;;24.92;46.02;99084.72;5113514;28;20044;-64
2022/05/15 11:13:44;;;;;;;2.40;1.48;;;;;;;24.93;46.21;99075.94;5113503;28;20088;-65
2022/05/15 11:16:43;;;;;;;2.40;1.70;;;;;;;24.93;46.26;99077.91;5096064;28;20419;-65
2022/05/15 11:19:38;;;;;;;1.83;1.40;;;;;;;24.95;46.08;99072.72;5113212;28;20400;-64
2022/05/15 11:22:15;;;;;;;2.10;1.48;;;;;;;24.94;46.17;99068.34;5112379;28;20044;-58
2022/05/15 11:24:46;;;;;;;3.05;1.80;;;;;;;24.94;46.11;99065.56;5111224;28;20514;-59
2022/05/15 11:27:35;;;;;;;1.65;1.30;;;;;;;24.95;46.11;99062.34;5113390;28;20043;-58
2022/05/15 11:30:08;;;;;;;2.47;1.50;;;;;;;24.96;46.30;99052.72;5111759;28;20130;-58
2022/05/15 11:32:41;;;;;;;2.33;1.70;;;;;;;24.96;46.39;99051.94;5112137;28;20047;-65
2022/05/15 11:35:18;;;;;;;2.28;1.55;;;;;;;24.95;46.37;99047.56;5113192;28;20050;-65
2022/05/15 11:37:56;;;;;;;2.38;1.60;;;;;;;24.98;46.28;99041.13;5113138;28;20176;-65
2022/05/15 11:40:30;;;;;;;2.00;1.50;;;;;;;24.99;46.18;99037.91;5113021;28;20234;-65
2022/05/15 11:42:57;;;;;;;2.15;1.50;;;;;;;25.01;46.27;99031.13;5094664;28;20426;-58
2022/05/15 11:45:29;;;;;;;2.63;1.50;;;;;;;24.98;46.56;99027.91;5112812;28;21077;-58
2022/05/15 11:48:01;;;;;;;2.58;1.85;;;;;;;25.01;46.73;99029.13;5112885;28;20118;-58
2022/05/15 11:50:37;;;;;;;2.50;1.70;;;;;;;25.02;46.61;99018.72;5112626;28;20066;-58
2022/05/15 11:53:13;;;;;;;2.30;1.67;;;;;;;25.01;46.63;99025.53;5112744;28;20092;-58
2022/05/15 11:55:47;;;;;;;3.30;1.90;;;;;;;25.03;46.82;99011.91;5112626;28;20046;-58
2022/05/15 11:58:20;;;;;;;2.13;1.65;;;;;;;25.02;47.10;99021.53;5112599;28;20128;-58
2022/05/15 12:01:09;;;;;;;2.63;1.85;;;;;;;25.01;47.02;99026.31;5094290;28;20048;-58
2022/05/15 12:03:34;;;;;;;2.38;1.75;;;;;;;25.04;47.40;99013.53;5112642;28;20564;-58
2022/05/15 12:06:04;;;;;;;2.80;2.03;;;;;;;25.03;47.31;99011.91;5112327;28;20039;-65